Time;durP1;ratioP1;P1;durP2;ratioP2;P2;SDS_P1;SDS_P2;PMS_P1;PMS_P2;Temp;Humidity;BMP_temperature;BMP_pressure;BME280_temperature;BME280_humidity;BME280_pressure;Samples;Min_cycle;Max_cycle;Signal;HPM_P1;HPM_P2
2021/04/06 00:02:19;;;;;;;4.03;0.57;;;0.80;99.90;;;;;;5039197;28;20104;-93
2021/04/06 00:04:49;;;;;;;3.57;0.67;;;0.70;99.90;;;;;;5031360;28;20436;-93
2021/04/06 00:07:18;;;;;;;2.93;0.50;;;0.80;99.90;;;;;;5050469;28;20044;-94
2021/04/06 00:10:12;;;;;;;2.43;0.40;;;0.70;99.90;;;;;;5050840;28;20492;-93
2021/04/06 00:12:44;;;;;;;3.57;0.47;;;0.70;99.90;;;;;;5041777;28;20029;-94
2021/04/06 00:15:15;;;;;;;2.10;0.50;;;0.70;99.90;;;;;;5049045;28;20032;-94
2021/04/06 00:17:44;;;;;;;4.60;0.60;;;0.70;99.90;;;;;;5056406;28;20013;-94
2021/04/06 00:20:11;;;;;;;3.70;0.50;;;0.60;99.90;;;;;;5052269;28;20047;-95
2021/04/06 00:22:38;;;;;;;3.00;0.50;;;0.60;99.90;;;;;;5033376;28;20076;-94
2021/04/06 00:25:11;;;;;;;3.90;0.57;;;0.60;99.90;;;;;;5038922;28;20106;-94
2021/04/06 00:27:42;;;;;;;3.13;0.53;;;0.60;99.90;;;;;;5036172;28;20818;-93
2021/04/06 00:30:14;;;;;;;6.45;0.60;;;0.60;99.90;;;;;;5031644;28;20021;-93
2021/04/06 00:32:41;;;;;;;1.50;0.30;;;0.70;99.90;;;;;;5036960;28;20032;-93
2021/04/06 00:35:10;;;;;;;5.27;0.80;;;0.60;99.90;;;;;;5036849;28;20060;-94
2021/04/06 00:37:46;;;;;;;2.57;0.60;;;0.60;99.90;;;;;;5036989;28;20031;-93
2021/04/06 00:40:14;;;;;;;4.87;0.60;;;0.40;99.90;;;;;;5027353;28;20056;-93
2021/04/06 00:42:42;;;;;;;1.97;0.63;;;0.40;99.90;;;;;;5026323;28;20021;-94
2021/04/06 00:45:15;;;;;;;4.97;0.77;;;0.30;99.90;;;;;;5030025;28;20101;-93
2021/04/06 00:47:41;;;;;;;3.43;0.70;;;0.20;99.90;;;;;;5035533;28;20466;-93
2021/04/06 00:50:17;;;;;;;4.80;0.67;;;0.10;99.90;;;;;;5035956;28;20047;-93
2021/04/06 00:52:47;;;;;;;4.27;0.70;;;0.10;99.90;;;;;;5038049;28;20075;-93
2021/04/06 00:55:18;;;;;;;4.87;0.90;;;0.00;99.90;;;;;;5036120;28;20485;-94
2021/04/06 00:57:44;;;;;;;5.83;0.90;;;-0.10;99.90;;;;;;5028386;28;20043;-93
2021/04/06 01:00:17;;;;;;;3.80;0.83;;;-0.20;99.90;;;;;;5027327;28;20041;-93
2021/04/06 01:03:12;;;;;;;5.10;0.93;;;-0.10;99.90;;;;;;5036065;28;20036;-93
2021/04/06 01:06:00;;;;;;;3.80;0.70;;;-0.10;99.90;;;;;;5034092;28;20446;-93
2021/04/06 01:08:31;;;;;;;7.10;0.93;;;-0.20;99.90;;;;;;5036616;28;20017;-94
2021/04/06 01:11:00;;;;;;;2.93;0.80;;;-0.30;99.90;;;;;;5037107;28;20184;-94
2021/04/06 01:13:29;;;;;;;5.93;1.13;;;-0.20;99.90;;;;;;5027621;28;20026;-93
2021/04/06 01:15:55;;;;;;;2.70;0.90;;;-0.20;99.90;;;;;;5035403;28;20025;-93
2021/04/06 01:18:23;;;;;;;4.47;0.77;;;-0.30;99.90;;;;;;5028393;28;20033;-93
2021/04/06 01:20:56;;;;;;;4.17;0.87;;;-0.30;99.90;;;;;;5035544;28;20048;-93
2021/04/06 01:23:23;;;;;;;5.10;1.10;;;-0.20;99.90;;;;;;5035291;28;20765;-93
2021/04/06 01:25:56;;;;;;;5.00;0.93;;;-0.20;99.90;;;;;;5036031;28;20024;-93
2021/04/06 01:28:26;;;;;;;3.20;0.70;;;-0.20;99.90;;;;;;5030626;28;20084;-93
2021/04/06 01:30:53;;;;;;;6.87;1.07;;;-0.20;99.90;;;;;;5034307;28;20033;-93
2021/04/06 01:33:25;;;;;;;4.10;1.00;;;-0.10;99.90;;;;;;5034935;28;20028;-94
2021/04/06 01:35:56;;;;;;;3.60;0.68;;;-0.10;99.90;;;;;;5035271;28;20486;-94
2021/04/06 01:38:27;;;;;;;5.23;1.13;;;-0.20;99.90;;;;;;5034431;28;20022;-93
2021/04/06 01:40:56;;;;;;;3.10;0.90;;;-0.20;99.90;;;;;;5040327;28;20049;-94
2021/04/06 01:43:24;;;;;;;1.80;0.63;;;-0.40;99.90;;;;;;5035809;28;20402;-92
2021/04/06 01:45:54;;;;;;;4.70;0.80;;;-0.50;99.90;;;;;;5035488;28;20470;-93
2021/04/06 01:48:20;;;;;;;4.30;0.90;;;-0.60;99.90;;;;;;5033760;28;20048;-93
2021/04/06 01:50:54;;;;;;;4.87;1.00;;;-0.50;99.90;;;;;;5035214;28;20026;-93
2021/04/06 01:53:21;;;;;;;5.27;1.10;;;-0.60;99.90;;;;;;5034917;28;20025;-93
2021/04/06 01:56:14;;;;;;;4.23;1.03;;;-0.40;99.90;;;;;;5035132;28;20026;-92
2021/04/06 01:58:44;;;;;;;5.97;0.87;;;-0.70;99.90;;;;;;5034320;28;20029;-93
2021/04/06 02:04:03;;;;;;;2.28;0.80;;;-0.70;99.90;;;;;;5035793;28;20013;-93
2021/04/06 02:06:32;;;;;;;2.33;0.80;;;-0.80;99.90;;;;;;5045455;23;20043;-84
2021/04/06 02:08:59;;;;;;;4.27;0.67;;;-0.90;99.90;;;;;;5032439;28;20021;-83
2021/04/06 02:11:31;;;;;;;4.00;1.00;;;-1.00;99.90;;;;;;5030649;28;20045;-84
2021/04/06 02:14:11;;;;;;;5.15;0.70;;;-0.90;99.90;;;;;;5036836;28;20029;-84
2021/04/06 02:16:53;;;;;;;2.93;0.97;;;-1.10;99.90;;;;;;5035601;28;20101;-84
2021/04/06 02:19:32;;;;;;;4.80;0.90;;;-1.10;99.90;;;;;;5038391;28;20027;-84
2021/04/06 02:22:06;;;;;;;3.87;1.10;;;-1.10;99.90;;;;;;5037247;28;20029;-84
2021/04/06 02:24:43;;;;;;;4.37;0.90;;;-1.10;99.90;;;;;;5037018;28;20026;-84
2021/04/06 02:27:15;;;;;;;3.67;0.90;;;-1.00;99.90;;;;;;5037394;28;20025;-86
2021/04/06 02:29:46;;;;;;;3.67;1.02;;;-1.20;99.90;;;;;;5034991;28;20040;-84
2021/04/06 02:32:16;;;;;;;2.20;1.03;;;-1.20;99.90;;;;;;5037573;28;20021;-84
2021/04/06 02:34:47;;;;;;;7.63;1.20;;;-1.30;99.90;;;;;;5036172;28;20078;-84
2021/04/06 02:37:16;;;;;;;4.50;1.10;;;-1.50;99.90;;;;;;5038253;28;20478;-84
2021/04/06 02:39:42;;;;;;;4.37;1.13;;;-1.50;99.90;;;;;;5040456;28;20401;-84
2021/04/06 02:42:24;;;;;;;2.83;1.13;;;-1.60;99.90;;;;;;5039595;28;20057;-84
2021/04/06 02:45:08;;;;;;;4.20;0.97;;;-1.60;99.90;;;;;;5031790;28;20041;-85
2021/04/06 02:47:38;;;;;;;5.87;1.10;;;-1.70;99.90;;;;;;5037718;28;20126;-84
2021/04/06 02:50:07;;;;;;;5.53;1.07;;;-1.80;99.90;;;;;;5037678;28;20034;-84
2021/04/06 02:52:34;;;;;;;7.23;1.90;;;-1.80;99.90;;;;;;5036384;28;20477;-83
2021/04/06 02:55:00;;;;;;;6.37;1.13;;;-1.80;99.90;;;;;;5039445;28;20474;-84
2021/04/06 02:57:26;;;;;;;3.50;0.93;;;-1.80;99.90;;;;;;5035723;28;20026;-83
2021/04/06 02:59:53;;;;;;;6.10;1.00;;;-1.80;99.90;;;;;;5039769;28;20064;-83
2021/04/06 03:02:19;;;;;;;5.37;1.00;;;-1.80;99.90;;;;;;5039758;28;20025;-84
2021/04/06 03:04:46;;;;;;;6.17;0.90;;;-1.80;99.90;;;;;;5036511;28;20018;-84
2021/04/06 03:07:30;;;;;;;2.57;0.90;;;-1.70;99.90;;;;;;5035744;28;20128;-83
2021/04/06 03:09:58;;;;;;;3.33;0.80;;;-1.70;99.90;;;;;;5029033;28;20029;-84
2021/04/06 03:12:31;;;;;;;1.93;0.70;;;-1.70;99.90;;;;;;5034413;28;20478;-83
2021/04/06 03:14:59;;;;;;;3.10;0.80;;;-1.70;99.90;;;;;;5024983;28;20025;-83
2021/04/06 03:17:26;;;;;;;7.73;0.90;;;-1.60;99.90;;;;;;5037296;28;20073;-84
2021/04/06 03:19:58;;;;;;;3.53;0.93;;;-1.60;99.90;;;;;;5035819;28;20025;-84
2021/04/06 03:22:28;;;;;;;5.17;1.10;;;-1.60;99.90;;;;;;5035911;28;20018;-83
2021/04/06 03:24:54;;;;;;;6.00;1.20;;;-1.50;99.90;;;;;;5036347;28;20047;-83
2021/04/06 03:27:29;;;;;;;3.03;1.00;;;-1.50;99.90;;;;;;5034543;28;20821;-84
2021/04/06 03:29:59;;;;;;;7.50;1.70;;;-1.40;99.90;;;;;;5028743;28;20033;-84
2021/04/06 03:32:25;;;;;;;6.73;1.50;;;-1.40;99.90;;;;;;5036057;28;20025;-83
2021/04/06 03:34:52;;;;;;;8.80;1.30;;;-1.40;99.90;;;;;;5033342;28;20025;-84
2021/04/06 03:37:20;;;;;;;5.50;0.97;;;-1.30;99.90;;;;;;5038901;28;20081;-84
2021/04/06 03:39:47;;;;;;;9.47;1.23;;;-1.30;99.90;;;;;;5035674;28;20021;-83
2021/04/06 03:42:24;;;;;;;2.40;0.90;;;-1.40;99.90;;;;;;5039154;28;20022;-84
2021/04/06 03:44:51;;;;;;;5.00;1.10;;;-1.50;99.90;;;;;;5034090;28;20442;-83
2021/04/06 03:47:16;;;;;;;5.13;1.57;;;-1.40;99.90;;;;;;5031645;28;20049;-84
2021/04/06 03:49:49;;;;;;;4.03;1.13;;;-1.40;99.90;;;;;;5036131;28;20355;-83
2021/04/06 03:52:15;;;;;;;8.98;1.58;;;-1.40;99.90;;;;;;5030041;28;20057;-83
2021/04/06 03:54:47;;;;;;;9.37;1.10;;;-1.50;99.90;;;;;;5035542;28;20034;-83
2021/04/06 03:57:52;;;;;;;5.87;1.40;;;-1.50;99.90;;;;;;5050391;28;20026;-84
2021/04/06 04:00:19;;;;;;;8.00;1.47;;;-1.50;99.90;;;;;;5036308;28;20080;-83
2021/04/06 04:02:44;;;;;;;6.47;1.47;;;-1.60;99.90;;;;;;5040257;28;20331;-83
2021/04/06 04:05:11;;;;;;;4.53;1.30;;;-1.50;99.90;;;;;;5039019;28;20029;-84
2021/04/06 04:07:37;;;;;;;7.27;1.67;;;-1.50;99.90;;;;;;5033149;28;20084;-83
2021/04/06 04:10:08;;;;;;;6.20;1.80;;;-1.50;99.90;;;;;;5037385;28;20021;-84
2021/04/06 04:12:33;;;;;;;5.87;1.70;;;-1.40;99.90;;;;;;5037269;28;20059;-84
2021/04/06 04:14:59;;;;;;;4.00;1.50;;;-1.50;99.90;;;;;;5036961;28;20029;-84
2021/04/06 04:17:25;;;;;;;4.47;1.40;;;-1.40;99.90;;;;;;5035627;28;20021;-83
2021/04/06 04:19:52;;;;;;;6.17;1.73;;;-1.50;99.90;;;;;;5033811;28;20033;-84
2021/04/06 04:22:18;;;;;;;5.13;1.50;;;-1.50;99.90;;;;;;5027839;28;20014;-84
2021/04/06 04:24:43;;;;;;;4.83;1.37;;;-1.50;99.90;;;;;;5038801;28;20073;-84
2021/04/06 04:27:09;;;;;;;6.47;1.87;;;-1.50;99.90;;;;;;5038143;28;20017;-83
2021/04/06 04:29:34;;;;;;;4.87;1.60;;;-1.50;99.90;;;;;;5035979;28;20052;-84
2021/04/06 04:32:00;;;;;;;5.53;1.87;;;-1.40;99.90;;;;;;5021887;28;20022;-84
2021/04/06 04:34:25;;;;;;;3.67;1.10;;;-1.30;99.90;;;;;;5034406;28;20074;-84
2021/04/06 04:36:51;;;;;;;6.20;1.70;;;-1.40;99.90;;;;;;5034598;28;20132;-84
2021/04/06 04:39:17;;;;;;;7.53;2.00;;;-1.40;99.90;;;;;;5037294;28;20020;-84
2021/04/06 04:41:42;;;;;;;5.27;1.60;;;-1.40;99.90;;;;;;5036248;28;20047;-84
2021/04/06 04:44:08;;;;;;;7.40;1.70;;;-1.40;99.90;;;;;;5029802;28;20030;-82
2021/04/06 04:46:34;;;;;;;5.73;1.70;;;-1.40;99.90;;;;;;5034088;28;20033;-83
2021/04/06 04:48:59;;;;;;;7.47;1.60;;;-1.50;99.90;;;;;;5030802;28;20510;-83
2021/04/06 04:51:25;;;;;;;7.60;1.70;;;-1.60;99.90;;;;;;5032877;28;20053;-83
2021/04/06 04:53:51;;;;;;;7.87;1.50;;;-1.50;99.90;;;;;;5032141;28;20029;-83
2021/04/06 04:56:17;;;;;;;6.70;1.63;;;-1.60;99.90;;;;;;5028495;28;20018;-83
2021/04/06 04:58:42;;;;;;;4.77;1.43;;;-1.50;99.90;;;;;;5023525;28;20048;-83
2021/04/06 05:01:08;;;;;;;8.13;1.80;;;-1.50;99.90;;;;;;5037828;28;20057;-83
2021/04/06 05:03:34;;;;;;;6.47;1.60;;;-1.60;99.90;;;;;;5032738;28;20025;-83
2021/04/06 05:06:00;;;;;;;6.00;1.70;;;-1.50;99.90;;;;;;5033753;28;20041;-82
2021/04/06 05:08:26;;;;;;;6.37;2.40;;;-1.50;99.90;;;;;;5036117;28;20037;-83
2021/04/06 05:10:51;;;;;;;5.40;1.73;;;-1.40;99.90;;;;;;5040093;28;20119;-83
2021/04/06 05:13:20;;;;;;;8.23;1.87;;;-1.40;99.90;;;;;;5046058;28;20022;-83
2021/04/06 05:15:46;;;;;;;3.97;2.00;;;-1.40;99.90;;;;;;5030462;28;20313;-82
2021/04/06 05:18:11;;;;;;;8.87;1.70;;;-1.40;99.90;;;;;;5038076;28;20109;-84
2021/04/06 05:20:37;;;;;;;4.70;1.63;;;-1.30;99.90;;;;;;5037535;28;20036;-83
2021/04/06 05:23:02;;;;;;;6.30;1.80;;;-1.30;99.90;;;;;;5036835;28;20581;-84
2021/04/06 05:25:28;;;;;;;4.37;1.73;;;-1.40;99.90;;;;;;5033231;28;20092;-83
2021/04/06 05:27:54;;;;;;;6.13;1.80;;;-1.30;99.90;;;;;;5040967;28;20025;-83
2021/04/06 05:30:20;;;;;;;9.40;1.90;;;-1.30;99.90;;;;;;5035787;28;20026;-84
2021/04/06 05:32:45;;;;;;;6.87;1.90;;;-1.30;99.90;;;;;;5035933;28;20026;-84
2021/04/06 05:35:11;;;;;;;9.23;1.73;;;-1.30;99.90;;;;;;5035940;28;20445;-85
2021/04/06 05:37:37;;;;;;;9.73;1.93;;;-1.30;99.90;;;;;;5038076;28;20079;-85
2021/04/06 05:40:03;;;;;;;5.37;1.30;;;-1.20;99.90;;;;;;5026866;28;20661;-85
2021/04/06 05:42:29;;;;;;;7.50;2.00;;;-1.20;99.90;;;;;;5034047;28;20075;-84
2021/04/06 05:44:55;;;;;;;6.37;1.33;;;-1.10;99.90;;;;;;5036739;28;20029;-85
2021/04/06 05:47:43;;;;;;;8.40;1.70;;;-1.10;99.90;;;;;;5039290;23;20066;-84
2021/04/06 05:50:09;;;;;;;8.13;2.10;;;-1.00;99.90;;;;;;5034031;28;20108;-83
2021/04/06 05:52:35;;;;;;;6.13;1.50;;;-1.00;99.90;;;;;;5025354;28;20590;-84
2021/04/06 05:55:03;;;;;;;8.47;1.97;;;-1.10;99.90;;;;;;5034008;28;20359;-83
2021/04/06 06:00:17;;;;;;;5.27;1.40;;;-1.10;99.90;;;;;;5038000;28;20047;-84
2021/04/06 06:02:43;;;;;;;7.33;1.50;;;-1.00;99.90;;;;;;5030266;28;20017;-84
2021/04/06 06:05:09;;;;;;;9.20;1.83;;;-1.00;99.90;;;;;;5045737;28;20018;-84
2021/04/06 06:07:34;;;;;;;8.87;1.90;;;-0.90;99.90;;;;;;5033497;28;20026;-85
2021/04/06 06:10:26;;;;;;;6.57;1.80;;;-0.80;99.90;;;;;;5024638;28;20018;-84
2021/04/06 06:12:53;;;;;;;11.03;1.93;;;-0.80;99.90;;;;;;5029801;28;20026;-83
2021/04/06 06:15:19;;;;;;;6.37;1.53;;;-0.80;99.90;;;;;;5029111;28;20026;-83
2021/04/06 06:18:04;;;;;;;6.10;1.50;;;-0.80;99.90;;;;;;5035889;28;20032;-84
2021/04/06 06:20:31;;;;;;;5.90;2.00;;;-0.70;99.90;;;;;;5034227;28;20041;-84
2021/04/06 06:23:17;;;;;;;3.97;1.30;;;-0.70;99.90;;;;;;5031761;28;20115;-84
2021/04/06 06:26:03;;;;;;;4.13;1.63;;;-0.60;99.90;;;;;;5024298;28;20101;-84
2021/04/06 06:28:29;;;;;;;5.90;1.57;;;-0.50;99.90;;;;;;5025695;28;20018;-84
2021/04/06 06:30:57;;;;;;;6.23;1.80;;;-0.30;99.90;;;;;;5035916;28;20488;-84
2021/04/06 06:33:24;;;;;;;5.87;1.63;;;-0.30;99.90;;;;;;5036470;28;20104;-84
2021/04/06 06:35:50;;;;;;;9.50;2.20;;;-0.30;99.90;;;;;;5036759;28;20152;-85
2021/04/06 06:38:24;;;;;;;4.93;1.63;;;-0.20;99.90;;;;;;5030408;28;20033;-83
2021/04/06 06:40:52;;;;;;;6.70;2.10;;;-0.10;99.90;;;;;;5031214;28;20022;-85
2021/04/06 06:43:19;;;;;;;8.33;1.90;;;0.00;99.90;;;;;;5031376;28;20029;-85
2021/04/06 06:45:46;;;;;;;6.63;1.73;;;-0.10;99.90;;;;;;5033934;28;20022;-84
2021/04/06 06:48:25;;;;;;;5.53;1.90;;;0.00;99.90;;;;;;5036692;28;20074;-85
2021/04/06 06:50:51;;;;;;;5.23;2.00;;;0.00;99.90;;;;;;5043063;28;20034;-84
2021/04/06 06:53:38;;;;;;;6.07;1.70;;;0.00;99.90;;;;;;5040671;28;20036;-85
2021/04/06 06:56:08;;;;;;;6.93;2.07;;;0.10;99.90;;;;;;5039361;28;20125;-88
2021/04/06 06:58:42;;;;;;;6.37;1.73;;;0.10;99.90;;;;;;5032277;28;20021;-87
2021/04/06 07:01:29;;;;;;;7.43;1.87;;;0.00;99.90;;;;;;5040935;28;20814;-87
2021/04/06 07:04:09;;;;;;;8.93;1.70;;;0.10;99.90;;;;;;5034850;28;20030;-88
2021/04/06 07:06:41;;;;;;;7.40;1.73;;;0.10;99.90;;;;;;5032284;28;20087;-87
2021/04/06 07:09:27;;;;;;;7.68;1.55;;;0.20;99.90;;;;;;5033838;28;20056;-88
2021/04/06 07:11:59;;;;;;;9.57;1.50;;;0.20;99.90;;;;;;5045814;28;20025;-86
2021/04/06 07:14:26;;;;;;;8.20;1.52;;;0.20;99.90;;;;;;5034226;28;20017;-88
2021/04/06 07:16:59;;;;;;;7.20;1.97;;;0.20;99.90;;;;;;5036541;28;20116;-87
2021/04/06 07:19:25;;;;;;;8.50;1.50;;;0.30;99.90;;;;;;5027548;28;20029;-86
2021/04/06 07:21:57;;;;;;;7.80;1.73;;;0.50;99.90;;;;;;5040023;28;20021;-88
2021/04/06 07:24:35;;;;;;;7.05;1.55;;;0.50;99.90;;;;;;5034358;28;20016;-88
2021/04/06 07:27:06;;;;;;;5.63;1.50;;;0.70;99.90;;;;;;5028262;28;20033;-88
2021/04/06 07:29:32;;;;;;;11.80;1.73;;;0.80;99.90;;;;;;5045707;28;20022;-88
2021/04/06 07:31:59;;;;;;;6.13;1.63;;;0.90;99.90;;;;;;5033428;28;20021;-87
2021/04/06 07:34:26;;;;;;;9.83;2.20;;;1.20;99.90;;;;;;5033631;28;20104;-88
2021/04/06 07:36:53;;;;;;;6.50;1.80;;;1.20;99.90;;;;;;5027102;28;21293;-87
2021/04/06 07:39:21;;;;;;;5.27;1.50;;;1.40;99.90;;;;;;5024939;28;20022;-88
2021/04/06 07:41:47;;;;;;;7.97;1.40;;;1.50;99.90;;;;;;5039256;28;21119;-88
2021/04/06 07:44:15;;;;;;;6.63;1.33;;;1.70;99.90;;;;;;5030239;28;20026;-88
2021/04/06 07:46:49;;;;;;;6.63;1.63;;;2.00;99.90;;;;;;5027195;28;20444;-86
2021/04/06 07:49:19;;;;;;;6.87;1.50;;;2.20;99.90;;;;;;5023051;28;20029;-89
2021/04/06 07:51:45;;;;;;;5.77;1.60;;;2.50;99.90;;;;;;5026347;28;20508;-89
2021/04/06 07:54:14;;;;;;;9.13;1.47;;;2.50;99.90;;;;;;5025001;28;20109;-89
2021/04/06 07:56:46;;;;;;;7.13;1.43;;;2.60;99.90;;;;;;5029299;28;20018;-89
2021/04/06 07:59:20;;;;;;;5.83;1.30;;;2.50;99.90;;;;;;5028165;28;20041;-90
2021/04/06 08:01:55;;;;;;;6.17;1.40;;;2.50;99.90;;;;;;5024916;28;21089;-89
2021/04/06 08:04:31;;;;;;;6.27;1.33;;;2.40;99.90;;;;;;5029620;28;20497;-91
2021/04/06 08:06:57;;;;;;;7.83;1.83;;;2.50;99.90;;;;;;5030723;28;20067;-89
2021/04/06 08:09:30;;;;;;;6.90;1.57;;;2.40;99.90;;;;;;5034847;28;20033;-89
2021/04/06 08:12:05;;;;;;;;;;;2.40;99.90;;;;;;5039749;28;20053;-90
2021/04/06 08:14:59;;;;;;;6.90;1.37;;;2.40;99.90;;;;;;5032040;28;20394;-90
2021/04/06 08:17:25;;;;;;;7.03;1.50;;;2.30;99.90;;;;;;5033518;28;20017;-91
2021/04/06 08:20:05;;;;;;;5.23;1.17;;;2.50;99.90;;;;;;5035016;28;20415;-90
2021/04/06 08:22:37;;;;;;;8.97;1.53;;;2.40;99.90;;;;;;5043346;28;20134;-91
2021/04/06 08:25:18;;;;;;;5.47;1.33;;;2.30;99.90;;;;;;5031999;28;20057;-92
2021/04/06 08:27:49;;;;;;;7.43;1.53;;;2.30;99.90;;;;;;5031307;28;20482;-91
2021/04/06 08:30:29;;;;;;;6.17;1.30;;;2.30;99.90;;;;;;5036621;28;20090;-91
2021/04/06 08:35:56;;;;;;;10.13;1.60;;;2.20;99.90;;;;;;5033614;28;20024;-90
2021/04/06 08:40:53;;;;;;;4.93;1.13;;;2.10;99.90;;;;;;5032938;28;20037;-90
2021/04/06 08:43:24;;;;;;;5.83;1.50;;;2.20;99.90;;;;;;5025626;28;20053;-91
2021/04/06 08:45:58;;;;;;;7.00;1.30;;;2.20;99.90;;;;;;5020939;28;20034;-91
2021/04/06 08:48:46;;;;;;;8.63;1.50;;;2.30;99.90;;;;;;5021654;28;20034;-91
2021/04/06 08:51:33;;;;;;;4.53;1.20;;;2.40;99.90;;;;;;5029926;28;20029;-92
2021/04/06 08:54:12;;;;;;;6.37;1.30;;;2.40;99.90;;;;;;5028218;28;20044;-91
2021/04/06 08:56:43;;;;;;;7.10;1.50;;;2.50;99.90;;;;;;5007061;28;20124;-91
2021/04/06 08:59:32;;;;;;;5.43;1.30;;;2.40;99.90;;;;;;5022290;28;20037;-91
2021/04/06 09:02:11;;;;;;;8.60;1.77;;;2.20;99.90;;;;;;5027154;28;20029;-91
2021/04/06 09:04:40;;;;;;;7.03;1.30;;;2.10;99.90;;;;;;5029316;28;20032;-90
2021/04/06 09:07:25;;;;;;;7.07;1.53;;;2.00;99.90;;;;;;5032014;28;20026;-90
2021/04/06 09:10:17;;;;;;;8.93;1.60;;;2.00;99.90;;;;;;5031999;28;20044;-91
2021/04/06 09:12:43;;;;;;;6.70;1.33;;;2.20;99.90;;;;;;5028574;28;20043;-89
2021/04/06 09:15:12;;;;;;;6.27;1.37;;;2.30;99.90;;;;;;5027918;28;20014;-91
2021/04/06 09:17:40;;;;;;;3.17;1.00;;;2.30;99.90;;;;;;5030258;28;20714;-92
2021/04/06 09:20:11;;;;;;;8.53;1.50;;;2.40;99.90;;;;;;5028596;28;20109;-92
2021/04/06 09:22:37;;;;;;;7.97;1.60;;;2.50;99.90;;;;;;5029440;28;20026;-91
2021/04/06 09:25:19;;;;;;;6.73;1.40;;;2.70;99.90;;;;;;5027461;28;20455;-91
2021/04/06 09:27:53;;;;;;;5.17;1.20;;;2.90;99.90;;;;;;5025752;28;20026;-93
2021/04/06 09:30:31;;;;;;;8.37;1.53;;;2.90;99.90;;;;;;5027070;28;20045;-90
2021/04/06 09:32:58;;;;;;;6.23;1.10;;;3.10;99.90;;;;;;5029883;28;20013;-92
2021/04/06 09:35:24;;;;;;;4.80;0.90;;;3.10;99.90;;;;;;5029590;28;20021;-90
2021/04/06 09:37:50;;;;;;;4.90;1.00;;;3.00;99.90;;;;;;5030587;28;20040;-92
2021/04/06 09:40:17;;;;;;;3.83;1.10;;;2.80;99.90;;;;;;5029696;28;20140;-91
2021/04/06 09:42:42;;;;;;;6.60;1.30;;;2.80;99.90;;;;;;5024121;28;21278;-90
2021/04/06 09:45:09;;;;;;;6.73;1.13;;;3.10;99.90;;;;;;5037760;28;20025;-91
2021/04/06 09:47:36;;;;;;;10.07;1.33;;;3.00;99.90;;;;;;5031821;28;20072;-91
2021/04/06 09:50:05;;;;;;;3.63;0.90;;;3.10;99.90;;;;;;5022916;28;20076;-91
2021/04/06 09:52:38;;;;;;;3.37;1.00;;;3.00;99.90;;;;;;5029017;28;20033;-92
2021/04/06 09:55:09;;;;;;;7.37;1.10;;;3.10;99.90;;;;;;5019251;28;20029;-90
2021/04/06 09:57:37;;;;;;;5.88;1.42;;;2.90;99.90;;;;;;5020456;28;20431;-92
2021/04/06 10:00:32;;;;;;;4.83;1.00;;;2.90;99.90;;;;;;5031186;28;20026;-91
2021/04/06 10:03:12;;;;;;;4.50;1.13;;;3.20;99.90;;;;;;5022551;28;20098;-91
2021/04/06 10:05:42;;;;;;;2.33;0.63;;;3.40;99.90;;;;;;5031787;28;20060;-92
2021/04/06 10:08:08;;;;;;;5.63;1.03;;;3.80;99.90;;;;;;5026356;28;20098;-91
2021/04/06 10:10:35;;;;;;;6.33;0.97;;;4.20;99.90;;;;;;5026222;28;20030;-91
2021/04/06 10:13:02;;;;;;;5.13;1.30;;;4.30;99.90;;;;;;5026910;28;20483;-90
2021/04/06 10:15:31;;;;;;;4.73;0.93;;;3.90;99.90;;;;;;5019070;28;20695;-91
2021/04/06 10:18:13;;;;;;;3.50;0.90;;;3.80;99.90;;;;;;5026931;28;20025;-92
2021/04/06 10:20:44;;;;;;;8.32;0.98;;;3.60;99.90;;;;;;5029551;28;20079;-93
2021/04/06 10:23:11;;;;;;;6.13;1.07;;;3.40;99.90;;;;;;5022570;28;20026;-93
2021/04/06 10:25:41;;;;;;;4.73;0.83;;;3.30;99.90;;;;;;5030157;28;20508;-93
2021/04/06 10:28:31;;;;;;;7.17;1.33;;;3.20;99.90;;;;;;5022265;28;20077;-92
2021/04/06 10:31:00;;;;;;;4.80;1.07;;;3.30;99.90;;;;;;5041904;28;20026;-90
2021/04/06 10:33:34;;;;;;;3.67;1.00;;;3.20;99.90;;;;;;5053070;28;20022;-92
2021/04/06 10:36:05;;;;;;;7.63;1.40;;;3.10;99.90;;;;;;5029173;28;20052;-91
2021/04/06 10:38:38;;;;;;;6.00;1.00;;;3.20;99.90;;;;;;5029074;28;20075;-90
2021/04/06 10:41:15;;;;;;;3.27;0.70;;;3.60;99.90;;;;;;5030361;28;20053;-90
2021/04/06 10:43:43;;;;;;;3.47;1.00;;;3.80;99.90;;;;;;5030837;28;20029;-91
2021/04/06 10:46:15;;;;;;;7.20;1.00;;;3.80;99.90;;;;;;5029908;28;20026;-91
2021/04/06 10:48:49;;;;;;;5.45;0.95;;;3.80;99.90;;;;;;5026534;28;20099;-90
2021/04/06 10:51:18;;;;;;;5.70;1.30;;;4.10;99.90;;;;;;5023584;28;20036;-87
2021/04/06 10:53:52;;;;;;;6.30;1.13;;;4.50;99.90;;;;;;5029551;28;20014;-88
2021/04/06 10:56:24;;;;;;;5.40;1.20;;;4.30;99.90;;;;;;5028689;28;20028;-88
2021/04/06 10:59:21;;;;;;;4.00;0.95;;;4.60;99.90;;;;;;5025895;28;20608;-89
2021/04/06 11:01:49;;;;;;;4.73;1.03;;;4.90;99.90;;;;;;5005674;28;20048;-88
2021/04/06 11:04:26;;;;;;;5.07;1.00;;;5.00;99.90;;;;;;5048702;28;20450;-90
2021/04/06 11:06:57;;;;;;;2.33;0.80;;;5.40;99.90;;;;;;5031970;28;20025;-89
2021/04/06 11:09:45;;;;;;;5.53;0.90;;;5.00;99.90;;;;;;5031408;28;20079;-88
2021/04/06 11:12:15;;;;;;;5.20;1.30;;;5.00;99.90;;;;;;5035826;28;20022;-90
2021/04/06 11:14:45;;;;;;;2.80;0.77;;;5.30;97.20;;;;;;5027407;28;20441;-88
2021/04/06 11:17:14;;;;;;;3.43;0.80;;;5.40;99.40;;;;;;5031881;28;20030;-89
2021/04/06 11:19:46;;;;;;;7.80;1.40;;;5.00;96.70;;;;;;5026221;28;20025;-88
2021/04/06 11:22:18;;;;;;;6.13;1.20;;;5.10;96.20;;;;;;5027288;28;20033;-89
2021/04/06 11:24:47;;;;;;;3.90;0.97;;;5.10;97.40;;;;;;5027059;28;20030;-88
2021/04/06 11:27:17;;;;;;;4.57;0.97;;;5.20;97.60;;;;;;5031382;28;20044;-89
2021/04/06 11:29:54;;;;;;;4.43;1.40;;;5.20;97.00;;;;;;5032114;28;20045;-87
2021/04/06 11:32:27;;;;;;;5.07;0.90;;;5.50;96.70;;;;;;5032126;28;20029;-88
2021/04/06 11:34:54;;;;;;;7.43;1.27;;;5.40;94.40;;;;;;5028028;28;20029;-87
2021/04/06 11:37:20;;;;;;;7.20;1.20;;;5.00;95.90;;;;;;5031865;28;20041;-88
2021/04/06 11:39:48;;;;;;;5.73;1.00;;;5.20;93.80;;;;;;5032227;28;20024;-88
2021/04/06 11:42:17;;;;;;;6.93;0.90;;;5.60;96.60;;;;;;5032804;28;20034;-89
2021/04/06 11:44:56;;;;;;;6.10;1.00;;;5.90;94.90;;;;;;5035533;28;20044;-89
2021/04/06 11:47:24;;;;;;;7.50;1.40;;;6.00;93.80;;;;;;5032398;28;20040;-90
2021/04/06 11:49:54;;;;;;;8.03;1.50;;;6.10;94.30;;;;;;5033607;28;20030;-90
2021/04/06 11:52:25;;;;;;;6.33;1.33;;;5.60;94.30;;;;;;5033332;28;20490;-89
2021/04/06 11:54:57;;;;;;;5.27;0.93;;;5.60;94.50;;;;;;5034551;28;20025;-90
2021/04/06 11:57:29;;;;;;;5.20;1.08;;;5.40;93.10;;;;;;5035955;28;20021;-90
2021/04/06 11:59:57;;;;;;;3.42;0.70;;;5.40;95.20;;;;;;5035847;28;20029;-90
2021/04/06 12:33:36;;;;;;;3.17;0.73;;;6.40;90.20;;;;;;5033787;28;20045;-89
2021/04/06 12:36:03;;;;;;;4.37;0.80;;;6.80;81.30;;;;;;5034968;28;20033;-91
2021/04/06 12:38:29;;;;;;;6.03;0.97;;;7.20;86.80;;;;;;5040756;28;20030;-89
2021/04/06 12:40:55;;;;;;;3.97;0.83;;;7.30;84.40;;;;;;5025376;28;20113;-89
2021/04/06 12:43:21;;;;;;;3.30;0.80;;;7.20;78.90;;;;;;5033300;28;20036;-90
2021/04/06 12:45:48;;;;;;;4.33;0.83;;;7.00;76.10;;;;;;5028116;28;20723;-88
2021/04/06 12:48:13;;;;;;;5.30;0.90;;;7.10;78.90;;;;;;5033944;28;20014;-89
2021/04/06 12:50:39;;;;;;;4.17;0.90;;;7.40;77.80;;;;;;5033675;28;20032;-88
2021/04/06 12:53:04;;;;;;;2.47;0.67;;;7.20;72.90;;;;;;5034970;28;20093;-87
2021/04/06 12:55:30;;;;;;;4.00;0.80;;;7.20;74.10;;;;;;5039857;28;20071;-90
2021/04/06 12:57:57;;;;;;;3.13;0.60;;;7.10;75.70;;;;;;5035919;28;20029;-87
2021/04/06 13:00:25;;;;;;;5.03;1.17;;;6.80;74.30;;;;;;5035630;28;20022;-88
2021/04/06 13:02:51;;;;;;;3.83;0.67;;;7.00;69.60;;;;;;5031355;28;20495;-89
2021/04/06 13:05:18;;;;;;;2.50;0.60;;;6.80;68.40;;;;;;5024719;28;20037;-89
2021/04/06 13:07:44;;;;;;;3.00;0.60;;;6.40;70.40;;;;;;5032973;28;20021;-89
2021/04/06 13:10:11;;;;;;;5.53;0.87;;;6.40;71.10;;;;;;5028636;28;20024;-88
2021/04/06 13:12:37;;;;;;;2.97;0.87;;;6.70;69.90;;;;;;5032850;28;20390;-85
2021/04/06 13:15:05;;;;;;;3.27;0.70;;;7.30;71.80;;;;;;5033095;28;20071;-88
2021/04/06 13:17:30;;;;;;;2.33;0.70;;;7.70;64.80;;;;;;5031632;28;20035;-85
2021/04/06 13:19:56;;;;;;;5.07;0.80;;;8.30;68.10;;;;;;5026606;28;20025;-84
2021/04/06 13:22:21;;;;;;;4.67;0.70;;;8.60;68.10;;;;;;5032580;28;20022;-86
2021/04/06 13:24:47;;;;;;;4.80;0.93;;;8.30;66.40;;;;;;5031683;28;20078;-84
2021/04/06 13:27:13;;;;;;;2.13;0.60;;;8.30;66.80;;;;;;5032003;28;20113;-84
2021/04/06 13:29:39;;;;;;;2.13;0.77;;;8.80;63.80;;;;;;5032220;28;20501;-86
2021/04/06 13:32:05;;;;;;;4.60;0.95;;;8.60;62.10;;;;;;5035557;28;20037;-84
2021/04/06 13:34:31;;;;;;;3.13;0.60;;;8.70;59.20;;;;;;5031178;28;20029;-84
2021/04/06 13:36:57;;;;;;;2.97;0.63;;;9.10;58.20;;;;;;5029260;28;20033;-86
2021/04/06 13:39:25;;;;;;;2.30;0.50;;;9.10;57.90;;;;;;5028159;28;20489;-84
2021/04/06 13:41:51;;;;;;;4.40;0.70;;;8.60;56.00;;;;;;5024429;28;20025;-85
2021/04/06 13:44:16;;;;;;;2.55;0.50;;;8.40;58.00;;;;;;5031947;28;20482;-84
2021/04/06 13:46:42;;;;;;;3.72;0.77;;;8.10;56.90;;;;;;5024319;28;20018;-85
2021/04/06 13:49:08;;;;;;;3.05;0.73;;;7.60;58.50;;;;;;5032913;28;20430;-85
2021/04/06 13:51:34;;;;;;;2.20;0.70;;;7.30;60.70;;;;;;5031960;28;20124;-85
2021/04/06 13:54:02;;;;;;;4.13;0.70;;;7.10;61.40;;;;;;5033588;28;20155;-85